sensor_id;sensor_type;location;lat;lon;timestamp;P1;durP1;ratioP1;P2;durP2;ratioP2
78072;SDS011;67281;48.770;11.440;2023-04-21T00:01:42;11.93;;;9.67;;
78072;SDS011;67281;48.770;11.440;2023-04-21T00:04:09;13.20;;;9.63;;
78072;SDS011;67281;48.770;11.440;2023-04-21T00:06:39;10.63;;;9.53;;
78072;SDS011;67281;48.770;11.440;2023-04-21T00:09:10;11.50;;;9.77;;
78072;SDS011;67281;48.770;11.440;2023-04-21T00:11:36;12.83;;;10.80;;
78072;SDS011;67281;48.770;11.440;2023-04-21T00:14:03;10.53;;;9.37;;
78072;SDS011;67281;48.770;11.440;2023-04-21T00:16:30;11.13;;;9.90;;
78072;SDS011;67281;48.770;11.440;2023-04-21T00:18:57;12.60;;;10.07;;
78072;SDS011;67281;48.770;11.440;2023-04-21T00:21:24;12.97;;;9.80;;
78072;SDS011;67281;48.770;11.440;2023-04-21T00:23:52;11.33;;;9.40;;
78072;SDS011;67281;48.770;11.440;2023-04-21T00:26:19;13.63;;;9.43;;
78072;SDS011;67281;48.770;11.440;2023-04-21T00:28:46;12.73;;;10.63;;
78072;SDS011;67281;48.770;11.440;2023-04-21T00:31:13;14.27;;;10.20;;
78072;SDS011;67281;48.770;11.440;2023-04-21T00:33:40;12.07;;;10.03;;
78072;SDS011;67281;48.770;11.440;2023-04-21T00:36:07;11.13;;;9.70;;
78072;SDS011;67281;48.770;11.440;2023-04-21T00:38:34;11.17;;;9.80;;
78072;SDS011;67281;48.770;11.440;2023-04-21T00:41:01;13.73;;;10.67;;
78072;SDS011;67281;48.770;11.440;2023-04-21T00:43:28;12.40;;;10.20;;
78072;SDS011;67281;48.770;11.440;2023-04-21T00:45:54;15.07;;;10.80;;
78072;SDS011;67281;48.770;11.440;2023-04-21T00:48:21;13.60;;;10.70;;
78072;SDS011;67281;48.770;11.440;2023-04-21T00:50:48;12.77;;;10.23;;
78072;SDS011;67281;48.770;11.440;2023-04-21T00:53:15;12.50;;;9.97;;
78072;SDS011;67281;48.770;11.440;2023-04-21T00:55:42;10.87;;;9.43;;
78072;SDS011;67281;48.770;11.440;2023-04-21T00:58:10;11.57;;;9.63;;
78072;SDS011;67281;48.770;11.440;2023-04-21T01:00:37;11.37;;;10.00;;
78072;SDS011;67281;48.770;11.440;2023-04-21T01:03:05;13.17;;;9.73;;
78072;SDS011;67281;48.770;11.440;2023-04-21T01:05:33;10.70;;;9.57;;
78072;SDS011;67281;48.770;11.440;2023-04-21T01:08:01;11.10;;;9.97;;
78072;SDS011;67281;48.770;11.440;2023-04-21T01:10:28;13.23;;;10.13;;
78072;SDS011;67281;48.770;11.440;2023-04-21T01:12:55;10.70;;;9.47;;
78072;SDS011;67281;48.770;11.440;2023-04-21T01:15:21;12.03;;;10.20;;
78072;SDS011;67281;48.770;11.440;2023-04-21T01:17:48;11.53;;;9.77;;
78072;SDS011;67281;48.770;11.440;2023-04-21T01:20:15;12.30;;;10.20;;
78072;SDS011;67281;48.770;11.440;2023-04-21T01:22:42;12.60;;;9.43;;
78072;SDS011;67281;48.770;11.440;2023-04-21T01:25:13;15.47;;;11.07;;
78072;SDS011;67281;48.770;11.440;2023-04-21T01:27:40;13.53;;;9.77;;
78072;SDS011;67281;48.770;11.440;2023-04-21T01:30:07;13.07;;;10.87;;
78072;SDS011;67281;48.770;11.440;2023-04-21T01:32:35;11.13;;;9.60;;
78072;SDS011;67281;48.770;11.440;2023-04-21T01:35:02;14.53;;;10.77;;
78072;SDS011;67281;48.770;11.440;2023-04-21T01:37:30;13.20;;;10.40;;
78072;SDS011;67281;48.770;11.440;2023-04-21T01:40:00;12.33;;;10.87;;
78072;SDS011;67281;48.770;11.440;2023-04-21T01:42:30;13.77;;;10.80;;
78072;SDS011;67281;48.770;11.440;2023-04-21T01:44:58;13.00;;;10.47;;
78072;SDS011;67281;48.770;11.440;2023-04-21T01:47:26;11.60;;;10.27;;
78072;SDS011;67281;48.770;11.440;2023-04-21T01:49:53;11.80;;;9.70;;
78072;SDS011;67281;48.770;11.440;2023-04-21T01:52:20;12.40;;;10.43;;
78072;SDS011;67281;48.770;11.440;2023-04-21T01:54:47;12.47;;;11.07;;
78072;SDS011;67281;48.770;11.440;2023-04-21T01:57:15;11.87;;;10.20;;
78072;SDS011;67281;48.770;11.440;2023-04-21T01:59:42;12.47;;;10.23;;
78072;SDS011;67281;48.770;11.440;2023-04-21T02:02:11;11.70;;;10.03;;
78072;SDS011;67281;48.770;11.440;2023-04-21T02:04:38;12.07;;;10.73;;
78072;SDS011;67281;48.770;11.440;2023-04-21T02:07:05;13.50;;;11.40;;
78072;SDS011;67281;48.770;11.440;2023-04-21T02:09:32;11.50;;;9.97;;
78072;SDS011;67281;48.770;11.440;2023-04-21T02:11:58;10.20;;;9.17;;
78072;SDS011;67281;48.770;11.440;2023-04-21T02:14:25;12.57;;;10.40;;
78072;SDS011;67281;48.770;11.440;2023-04-21T02:16:55;13.37;;;10.87;;
78072;SDS011;67281;48.770;11.440;2023-04-21T02:19:22;12.33;;;10.63;;
78072;SDS011;67281;48.770;11.440;2023-04-21T02:21:49;12.77;;;10.57;;
78072;SDS011;67281;48.770;11.440;2023-04-21T02:24:16;11.57;;;10.37;;
78072;SDS011;67281;48.770;11.440;2023-04-21T02:26:43;13.43;;;11.13;;
78072;SDS011;67281;48.770;11.440;2023-04-21T02:29:09;11.93;;;10.63;;
78072;SDS011;67281;48.770;11.440;2023-04-21T02:31:36;12.47;;;11.17;;
78072;SDS011;67281;48.770;11.440;2023-04-21T02:34:22;12.57;;;11.23;;
78072;SDS011;67281;48.770;11.440;2023-04-21T02:36:49;13.07;;;10.63;;
78072;SDS011;67281;48.770;11.440;2023-04-21T02:39:16;11.97;;;10.27;;
78072;SDS011;67281;48.770;11.440;2023-04-21T02:41:46;11.20;;;9.97;;
78072;SDS011;67281;48.770;11.440;2023-04-21T02:44:14;12.50;;;11.13;;
78072;SDS011;67281;48.770;11.440;2023-04-21T02:46:43;12.00;;;10.20;;
78072;SDS011;67281;48.770;11.440;2023-04-21T02:49:10;12.53;;;10.93;;
78072;SDS011;67281;48.770;11.440;2023-04-21T02:51:37;12.03;;;10.50;;
78072;SDS011;67281;48.770;11.440;2023-04-21T02:54:04;13.13;;;10.73;;
78072;SDS011;67281;48.770;11.440;2023-04-21T02:56:31;13.97;;;11.37;;
78072;SDS011;67281;48.770;11.440;2023-04-21T02:59:00;12.17;;;10.43;;
78072;SDS011;67281;48.770;11.440;2023-04-21T03:01:26;12.37;;;11.07;;
78072;SDS011;67281;48.770;11.440;2023-04-21T03:03:53;17.10;;;10.87;;
78072;SDS011;67281;48.770;11.440;2023-04-21T03:06:20;14.47;;;10.83;;
78072;SDS011;67281;48.770;11.440;2023-04-21T03:08:47;14.60;;;12.80;;
78072;SDS011;67281;48.770;11.440;2023-04-21T03:11:14;14.43;;;11.83;;
78072;SDS011;67281;48.770;11.440;2023-04-21T03:13:41;12.87;;;10.70;;
78072;SDS011;67281;48.770;11.440;2023-04-21T03:16:08;17.27;;;12.20;;
78072;SDS011;67281;48.770;11.440;2023-04-21T03:18:49;14.43;;;11.30;;
78072;SDS011;67281;48.770;11.440;2023-04-21T03:21:16;12.57;;;11.27;;
78072;SDS011;67281;48.770;11.440;2023-04-21T03:23:43;14.23;;;11.17;;
78072;SDS011;67281;48.770;11.440;2023-04-21T03:26:10;12.73;;;11.43;;
78072;SDS011;67281;48.770;11.440;2023-04-21T03:28:37;13.73;;;11.97;;
78072;SDS011;67281;48.770;11.440;2023-04-21T03:31:04;13.70;;;10.70;;
78072;SDS011;67281;48.770;11.440;2023-04-21T03:33:31;13.23;;;10.70;;
78072;SDS011;67281;48.770;11.440;2023-04-21T03:35:57;15.60;;;11.90;;
78072;SDS011;67281;48.770;11.440;2023-04-21T03:38:27;13.87;;;11.57;;
78072;SDS011;67281;48.770;11.440;2023-04-21T03:40:54;15.80;;;12.13;;
78072;SDS011;67281;48.770;11.440;2023-04-21T03:43:21;12.43;;;10.33;;
78072;SDS011;67281;48.770;11.440;2023-04-21T03:45:48;12.53;;;11.23;;
78072;SDS011;67281;48.770;11.440;2023-04-21T03:48:15;15.83;;;11.60;;
78072;SDS011;67281;48.770;11.440;2023-04-21T03:50:41;14.87;;;10.97;;
78072;SDS011;67281;48.770;11.440;2023-04-21T03:53:08;11.87;;;9.83;;
78072;SDS011;67281;48.770;11.440;2023-04-21T03:55:35;13.07;;;10.90;;
78072;SDS011;67281;48.770;11.440;2023-04-21T03:58:02;14.90;;;10.70;;
78072;SDS011;67281;48.770;11.440;2023-04-21T04:00:29;16.37;;;10.67;;
78072;SDS011;67281;48.770;11.440;2023-04-21T04:02:56;11.30;;;9.93;;
78072;SDS011;67281;48.770;11.440;2023-04-21T04:05:23;12.20;;;10.23;;
78072;SDS011;67281;48.770;11.440;2023-04-21T04:07:50;13.57;;;11.00;;
78072;SDS011;67281;48.770;11.440;2023-04-21T04:10:17;13.50;;;10.60;;
78072;SDS011;67281;48.770;11.440;2023-04-21T04:12:46;16.77;;;10.53;;
78072;SDS011;67281;48.770;11.440;2023-04-21T04:15:14;15.17;;;10.90;;
78072;SDS011;67281;48.770;11.440;2023-04-21T04:17:41;12.00;;;10.60;;
78072;SDS011;67281;48.770;11.440;2023-04-21T04:20:10;13.37;;;11.57;;
78072;SDS011;67281;48.770;11.440;2023-04-21T04:22:38;12.60;;;10.77;;
78072;SDS011;67281;48.770;11.440;2023-04-21T04:25:05;13.93;;;11.20;;
78072;SDS011;67281;48.770;11.440;2023-04-21T04:27:31;14.67;;;11.47;;
78072;SDS011;67281;48.770;11.440;2023-04-21T04:29:58;13.27;;;11.30;;
78072;SDS011;67281;48.770;11.440;2023-04-21T04:32:25;13.43;;;11.43;;
78072;SDS011;67281;48.770;11.440;2023-04-21T04:34:55;13.57;;;12.17;;
78072;SDS011;67281;48.770;11.440;2023-04-21T04:37:22;14.60;;;12.00;;
78072;SDS011;67281;48.770;11.440;2023-04-21T04:39:53;12.17;;;10.83;;
78072;SDS011;67281;48.770;11.440;2023-04-21T04:42:20;14.60;;;11.53;;
78072;SDS011;67281;48.770;11.440;2023-04-21T04:44:47;14.57;;;11.23;;
78072;SDS011;67281;48.770;11.440;2023-04-21T04:47:14;12.93;;;11.53;;
78072;SDS011;67281;48.770;11.440;2023-04-21T04:49:41;14.77;;;10.63;;
78072;SDS011;67281;48.770;11.440;2023-04-21T04:52:08;13.43;;;11.37;;
78072;SDS011;67281;48.770;11.440;2023-04-21T04:54:34;13.23;;;11.70;;
78072;SDS011;67281;48.770;11.440;2023-04-21T04:57:01;14.23;;;11.87;;
78072;SDS011;67281;48.770;11.440;2023-04-21T04:59:28;15.17;;;11.63;;
78072;SDS011;67281;48.770;11.440;2023-04-21T05:01:56;15.87;;;12.13;;
78072;SDS011;67281;48.770;11.440;2023-04-21T05:04:23;13.93;;;11.77;;
78072;SDS011;67281;48.770;11.440;2023-04-21T05:06:51;13.77;;;11.43;;
78072;SDS011;67281;48.770;11.440;2023-04-21T05:09:18;14.43;;;12.40;;
78072;SDS011;67281;48.770;11.440;2023-04-21T05:11:45;16.50;;;12.33;;
78072;SDS011;67281;48.770;11.440;2023-04-21T05:14:12;16.73;;;11.37;;
78072;SDS011;67281;48.770;11.440;2023-04-21T05:16:39;16.23;;;12.37;;
78072;SDS011;67281;48.770;11.440;2023-04-21T05:19:05;15.90;;;12.13;;
78072;SDS011;67281;48.770;11.440;2023-04-21T05:21:32;14.50;;;12.60;;
78072;SDS011;67281;48.770;11.440;2023-04-21T05:23:59;15.60;;;12.07;;
78072;SDS011;67281;48.770;11.440;2023-04-21T05:26:27;13.57;;;11.73;;
78072;SDS011;67281;48.770;11.440;2023-04-21T05:28:54;15.93;;;12.60;;
78072;SDS011;67281;48.770;11.440;2023-04-21T05:31:22;12.83;;;11.47;;
78072;SDS011;67281;48.770;11.440;2023-04-21T05:33:50;17.53;;;13.37;;
78072;SDS011;67281;48.770;11.440;2023-04-21T05:36:17;17.90;;;12.70;;
78072;SDS011;67281;48.770;11.440;2023-04-21T05:38:45;16.13;;;12.33;;
78072;SDS011;67281;48.770;11.440;2023-04-21T05:41:12;13.33;;;11.47;;
78072;SDS011;67281;48.770;11.440;2023-04-21T05:43:39;17.20;;;12.93;;
78072;SDS011;67281;48.770;11.440;2023-04-21T05:46:09;15.53;;;11.37;;
78072;SDS011;67281;48.770;11.440;2023-04-21T05:48:36;13.17;;;11.50;;
78072;SDS011;67281;48.770;11.440;2023-04-21T05:51:12;13.47;;;12.07;;
78072;SDS011;67281;48.770;11.440;2023-04-21T05:53:43;14.30;;;12.77;;
78072;SDS011;67281;48.770;11.440;2023-04-21T05:56:11;17.73;;;12.90;;
78072;SDS011;67281;48.770;11.440;2023-04-21T05:58:39;18.20;;;12.33;;
78072;SDS011;67281;48.770;11.440;2023-04-21T06:01:07;14.37;;;12.37;;
78072;SDS011;67281;48.770;11.440;2023-04-21T06:03:34;13.30;;;11.13;;
78072;SDS011;67281;48.770;11.440;2023-04-21T06:06:02;16.37;;;12.43;;
78072;SDS011;67281;48.770;11.440;2023-04-21T06:08:30;13.33;;;11.97;;
78072;SDS011;67281;48.770;11.440;2023-04-21T06:11:03;13.43;;;12.03;;
78072;SDS011;67281;48.770;11.440;2023-04-21T06:13:46;14.77;;;12.23;;
78072;SDS011;67281;48.770;11.440;2023-04-21T06:16:13;13.90;;;11.73;;
78072;SDS011;67281;48.770;11.440;2023-04-21T06:18:40;14.93;;;12.27;;
78072;SDS011;67281;48.770;11.440;2023-04-21T06:21:07;14.43;;;12.20;;
78072;SDS011;67281;48.770;11.440;2023-04-21T06:23:34;14.83;;;12.23;;
78072;SDS011;67281;48.770;11.440;2023-04-21T06:26:04;13.33;;;11.33;;
78072;SDS011;67281;48.770;11.440;2023-04-21T06:28:32;16.33;;;12.37;;
78072;SDS011;67281;48.770;11.440;2023-04-21T06:31:01;14.90;;;12.97;;
78072;SDS011;67281;48.770;11.440;2023-04-21T06:33:33;15.87;;;12.30;;
78072;SDS011;67281;48.770;11.440;2023-04-21T06:35:59;16.53;;;13.57;;
78072;SDS011;67281;48.770;11.440;2023-04-21T06:38:26;17.10;;;13.33;;
78072;SDS011;67281;48.770;11.440;2023-04-21T06:40:53;17.90;;;14.20;;
78072;SDS011;67281;48.770;11.440;2023-04-21T06:43:21;33.07;;;16.23;;
78072;SDS011;67281;48.770;11.440;2023-04-21T06:45:47;17.07;;;13.90;;
78072;SDS011;67281;48.770;11.440;2023-04-21T06:48:14;17.17;;;14.17;;
78072;SDS011;67281;48.770;11.440;2023-04-21T06:50:42;19.03;;;15.47;;
78072;SDS011;67281;48.770;11.440;2023-04-21T06:53:10;18.27;;;15.83;;
78072;SDS011;67281;48.770;11.440;2023-04-21T06:55:37;22.57;;;17.17;;
78072;SDS011;67281;48.770;11.440;2023-04-21T06:58:04;19.63;;;17.47;;
78072;SDS011;67281;48.770;11.440;2023-04-21T07:00:31;21.17;;;17.77;;
78072;SDS011;67281;48.770;11.440;2023-04-21T07:02:58;20.80;;;16.70;;
78072;SDS011;67281;48.770;11.440;2023-04-21T07:05:25;21.13;;;16.33;;
78072;SDS011;67281;48.770;11.440;2023-04-21T07:07:51;18.87;;;16.40;;
78072;SDS011;67281;48.770;11.440;2023-04-21T07:10:21;17.40;;;15.07;;
78072;SDS011;67281;48.770;11.440;2023-04-21T07:12:48;20.73;;;15.53;;
78072;SDS011;67281;48.770;11.440;2023-04-21T07:15:15;20.73;;;16.30;;
78072;SDS011;67281;48.770;11.440;2023-04-21T07:17:42;19.87;;;16.40;;
78072;SDS011;67281;48.770;11.440;2023-04-21T07:20:09;17.83;;;15.07;;
78072;SDS011;67281;48.770;11.440;2023-04-21T07:22:36;17.67;;;14.80;;
78072;SDS011;67281;48.770;11.440;2023-04-21T07:25:04;20.30;;;15.40;;
78072;SDS011;67281;48.770;11.440;2023-04-21T07:27:37;20.57;;;15.90;;
78072;SDS011;67281;48.770;11.440;2023-04-21T07:30:04;21.67;;;15.53;;
78072;SDS011;67281;48.770;11.440;2023-04-21T07:32:32;20.60;;;15.80;;
78072;SDS011;67281;48.770;11.440;2023-04-21T07:34:59;21.27;;;15.87;;
78072;SDS011;67281;48.770;11.440;2023-04-21T07:37:27;20.73;;;16.10;;
78072;SDS011;67281;48.770;11.440;2023-04-21T07:39:54;21.27;;;16.60;;
78072;SDS011;67281;48.770;11.440;2023-04-21T07:42:21;22.87;;;18.60;;
78072;SDS011;67281;48.770;11.440;2023-04-21T07:44:48;20.97;;;15.50;;
78072;SDS011;67281;48.770;11.440;2023-04-21T07:47:15;21.97;;;17.37;;
78072;SDS011;67281;48.770;11.440;2023-04-21T07:49:42;25.80;;;19.17;;
78072;SDS011;67281;48.770;11.440;2023-04-21T07:52:15;21.50;;;18.00;;
78072;SDS011;67281;48.770;11.440;2023-04-21T07:54:42;21.60;;;17.70;;
78072;SDS011;67281;48.770;11.440;2023-04-21T07:57:09;20.83;;;14.93;;
78072;SDS011;67281;48.770;11.440;2023-04-21T07:59:36;18.83;;;15.80;;
78072;SDS011;67281;48.770;11.440;2023-04-21T08:02:03;19.73;;;17.10;;
78072;SDS011;67281;48.770;11.440;2023-04-21T08:04:30;19.40;;;15.07;;
78072;SDS011;67281;48.770;11.440;2023-04-21T08:06:58;20.40;;;15.57;;
78072;SDS011;67281;48.770;11.440;2023-04-21T08:09:25;18.30;;;14.63;;
78072;SDS011;67281;48.770;11.440;2023-04-21T08:11:52;19.97;;;14.67;;
78072;SDS011;67281;48.770;11.440;2023-04-21T08:14:20;17.10;;;15.00;;
78072;SDS011;67281;48.770;11.440;2023-04-21T08:16:47;19.87;;;14.70;;
78072;SDS011;67281;48.770;11.440;2023-04-21T08:19:14;18.50;;;15.33;;
78072;SDS011;67281;48.770;11.440;2023-04-21T08:21:41;17.40;;;13.73;;
78072;SDS011;67281;48.770;11.440;2023-04-21T08:24:08;19.00;;;14.23;;
78072;SDS011;67281;48.770;11.440;2023-04-21T08:26:34;18.30;;;14.97;;
78072;SDS011;67281;48.770;11.440;2023-04-21T08:29:01;19.30;;;14.17;;
78072;SDS011;67281;48.770;11.440;2023-04-21T08:31:30;16.63;;;13.67;;
78072;SDS011;67281;48.770;11.440;2023-04-21T08:33:57;16.77;;;11.63;;
78072;SDS011;67281;48.770;11.440;2023-04-21T08:36:28;19.00;;;14.67;;
78072;SDS011;67281;48.770;11.440;2023-04-21T08:38:56;20.30;;;13.30;;
78072;SDS011;67281;48.770;11.440;2023-04-21T08:41:24;19.00;;;14.20;;
78072;SDS011;67281;48.770;11.440;2023-04-21T08:43:51;17.37;;;13.20;;
78072;SDS011;67281;48.770;11.440;2023-04-21T08:46:18;18.80;;;13.53;;
78072;SDS011;67281;48.770;11.440;2023-04-21T08:48:46;16.10;;;12.53;;
78072;SDS011;67281;48.770;11.440;2023-04-21T08:51:14;14.93;;;12.30;;
78072;SDS011;67281;48.770;11.440;2023-04-21T08:53:47;15.23;;;10.80;;
78072;SDS011;67281;48.770;11.440;2023-04-21T08:56:14;14.93;;;11.63;;
78072;SDS011;67281;48.770;11.440;2023-04-21T08:58:41;13.83;;;11.00;;
78072;SDS011;67281;48.770;11.440;2023-04-21T09:01:07;12.40;;;10.23;;
78072;SDS011;67281;48.770;11.440;2023-04-21T09:03:34;11.93;;;10.13;;
78072;SDS011;67281;48.770;11.440;2023-04-21T09:06:03;12.20;;;9.97;;
78072;SDS011;67281;48.770;11.440;2023-04-21T09:08:33;11.67;;;10.47;;
78072;SDS011;67281;48.770;11.440;2023-04-21T09:11:03;13.53;;;11.57;;
78072;SDS011;67281;48.770;11.440;2023-04-21T09:13:30;12.67;;;10.83;;
78072;SDS011;67281;48.770;11.440;2023-04-21T09:16:01;13.60;;;11.30;;
78072;SDS011;67281;48.770;11.440;2023-04-21T09:18:33;13.20;;;11.13;;
78072;SDS011;67281;48.770;11.440;2023-04-21T09:21:10;14.47;;;12.07;;
78072;SDS011;67281;48.770;11.440;2023-04-21T09:23:48;14.00;;;12.40;;
78072;SDS011;67281;48.770;11.440;2023-04-21T09:26:16;13.90;;;11.37;;
78072;SDS011;67281;48.770;11.440;2023-04-21T09:28:45;15.13;;;12.50;;
78072;SDS011;67281;48.770;11.440;2023-04-21T09:33:45;11.60;;;10.07;;
78072;SDS011;67281;48.770;11.440;2023-04-21T09:36:21;10.70;;;9.60;;
78072;SDS011;67281;48.770;11.440;2023-04-21T09:41:41;12.60;;;11.17;;
78072;SDS011;67281;48.770;11.440;2023-04-21T09:44:09;14.53;;;11.13;;
78072;SDS011;67281;48.770;11.440;2023-04-21T09:46:39;12.57;;;11.13;;
78072;SDS011;67281;48.770;11.440;2023-04-21T09:49:10;13.13;;;11.00;;
78072;SDS011;67281;48.770;11.440;2023-04-21T09:51:39;12.00;;;10.80;;
78072;SDS011;67281;48.770;11.440;2023-04-21T09:54:30;13.33;;;10.30;;
78072;SDS011;67281;48.770;11.440;2023-04-21T09:56:59;13.53;;;10.27;;
78072;SDS011;67281;48.770;11.440;2023-04-21T09:59:34;11.80;;;10.17;;
78072;SDS011;67281;48.770;11.440;2023-04-21T10:02:05;14.27;;;11.30;;
78072;SDS011;67281;48.770;11.440;2023-04-21T10:04:34;12.10;;;9.40;;
78072;SDS011;67281;48.770;11.440;2023-04-21T10:07:03;11.93;;;10.70;;
78072;SDS011;67281;48.770;11.440;2023-04-21T10:09:40;11.10;;;9.93;;
78072;SDS011;67281;48.770;11.440;2023-04-21T10:12:11;11.27;;;10.07;;
78072;SDS011;67281;48.770;11.440;2023-04-21T10:14:39;14.03;;;9.83;;
78072;SDS011;67281;48.770;11.440;2023-04-21T10:17:07;12.60;;;11.30;;
78072;SDS011;67281;48.770;11.440;2023-04-21T10:19:36;10.50;;;8.17;;
78072;SDS011;67281;48.770;11.440;2023-04-21T10:22:07;11.77;;;9.20;;
78072;SDS011;67281;48.770;11.440;2023-04-21T10:24:38;11.30;;;8.97;;
78072;SDS011;67281;48.770;11.440;2023-04-21T10:27:08;10.57;;;8.97;;
78072;SDS011;67281;48.770;11.440;2023-04-21T10:29:37;9.90;;;8.90;;
78072;SDS011;67281;48.770;11.440;2023-04-21T10:32:30;9.93;;;8.87;;
78072;SDS011;67281;48.770;11.440;2023-04-21T10:35:15;10.37;;;9.00;;
78072;SDS011;67281;48.770;11.440;2023-04-21T10:37:47;12.63;;;8.80;;
78072;SDS011;67281;48.770;11.440;2023-04-21T10:43:40;13.17;;;8.13;;
78072;SDS011;67281;48.770;11.440;2023-04-21T10:54:26;8.80;;;7.10;;
78072;SDS011;67281;48.770;11.440;2023-04-21T10:56:56;11.57;;;6.93;;
78072;SDS011;67281;48.770;11.440;2023-04-21T10:59:24;10.00;;;6.97;;
78072;SDS011;67281;48.770;11.440;2023-04-21T11:01:52;7.80;;;7.00;;
78072;SDS011;67281;48.770;11.440;2023-04-21T11:04:22;8.10;;;6.93;;
78072;SDS011;67281;48.770;11.440;2023-04-21T11:09:33;7.70;;;6.90;;
78072;SDS011;67281;48.770;11.440;2023-04-21T11:12:02;7.43;;;6.13;;
78072;SDS011;67281;48.770;11.440;2023-04-21T11:14:35;8.10;;;6.80;;
78072;SDS011;67281;48.770;11.440;2023-04-21T11:17:11;7.30;;;5.87;;
78072;SDS011;67281;48.770;11.440;2023-04-21T11:19:39;5.70;;;5.10;;
78072;SDS011;67281;48.770;11.440;2023-04-21T11:22:07;6.83;;;5.93;;
78072;SDS011;67281;48.770;11.440;2023-04-21T11:24:34;5.63;;;5.03;;
78072;SDS011;67281;48.770;11.440;2023-04-21T11:27:01;5.37;;;4.77;;
78072;SDS011;67281;48.770;11.440;2023-04-21T11:29:28;9.53;;;5.50;;
78072;SDS011;67281;48.770;11.440;2023-04-21T11:31:55;5.00;;;4.33;;
78072;SDS011;67281;48.770;11.440;2023-04-21T11:34:22;4.60;;;4.10;;
78072;SDS011;67281;48.770;11.440;2023-04-21T11:36:50;5.73;;;4.83;;
78072;SDS011;67281;48.770;11.440;2023-04-21T11:39:19;5.50;;;4.70;;
78072;SDS011;67281;48.770;11.440;2023-04-21T11:41:50;4.80;;;4.10;;
78072;SDS011;67281;48.770;11.440;2023-04-21T11:44:30;6.70;;;5.20;;
78072;SDS011;67281;48.770;11.440;2023-04-21T11:46:57;5.83;;;4.60;;
78072;SDS011;67281;48.770;11.440;2023-04-21T11:49:25;5.80;;;4.80;;
78072;SDS011;67281;48.770;11.440;2023-04-21T11:51:55;6.30;;;4.90;;
78072;SDS011;67281;48.770;11.440;2023-04-21T11:54:22;4.73;;;4.17;;
78072;SDS011;67281;48.770;11.440;2023-04-21T11:56:49;4.80;;;3.83;;
78072;SDS011;67281;48.770;11.440;2023-04-21T11:59:22;5.07;;;4.17;;
78072;SDS011;67281;48.770;11.440;2023-04-21T12:01:52;4.27;;;3.87;;
78072;SDS011;67281;48.770;11.440;2023-04-21T12:04:22;5.70;;;4.30;;
78072;SDS011;67281;48.770;11.440;2023-04-21T12:07:00;5.20;;;4.60;;
78072;SDS011;67281;48.770;11.440;2023-04-21T12:09:28;7.43;;;5.73;;
78072;SDS011;67281;48.770;11.440;2023-04-21T12:11:56;8.33;;;6.47;;
78072;SDS011;67281;48.770;11.440;2023-04-21T12:14:24;5.50;;;4.33;;
78072;SDS011;67281;48.770;11.440;2023-04-21T12:16:54;4.03;;;3.63;;
78072;SDS011;67281;48.770;11.440;2023-04-21T12:22:07;4.17;;;3.27;;
78072;SDS011;67281;48.770;11.440;2023-04-21T12:24:38;3.40;;;3.10;;
78072;SDS011;67281;48.770;11.440;2023-04-21T12:27:06;3.37;;;2.93;;
78072;SDS011;67281;48.770;11.440;2023-04-21T12:29:33;4.60;;;3.00;;
78072;SDS011;67281;48.770;11.440;2023-04-21T12:32:03;5.17;;;3.30;;
78072;SDS011;67281;48.770;11.440;2023-04-21T12:34:32;3.57;;;3.03;;
78072;SDS011;67281;48.770;11.440;2023-04-21T12:36:59;4.30;;;3.00;;
78072;SDS011;67281;48.770;11.440;2023-04-21T12:39:26;4.70;;;3.00;;
78072;SDS011;67281;48.770;11.440;2023-04-21T12:41:53;4.03;;;3.33;;
78072;SDS011;67281;48.770;11.440;2023-04-21T12:44:20;4.43;;;3.47;;
78072;SDS011;67281;48.770;11.440;2023-04-21T12:46:47;5.03;;;3.50;;
78072;SDS011;67281;48.770;11.440;2023-04-21T12:49:17;4.37;;;3.37;;
78072;SDS011;67281;48.770;11.440;2023-04-21T12:51:44;3.10;;;2.80;;
78072;SDS011;67281;48.770;11.440;2023-04-21T12:54:12;2.93;;;2.63;;
78072;SDS011;67281;48.770;11.440;2023-04-21T12:56:40;3.60;;;3.00;;
78072;SDS011;67281;48.770;11.440;2023-04-21T12:59:08;4.87;;;3.20;;
78072;SDS011;67281;48.770;11.440;2023-04-21T13:01:36;4.23;;;3.30;;
78072;SDS011;67281;48.770;11.440;2023-04-21T13:04:04;5.13;;;3.67;;
78072;SDS011;67281;48.770;11.440;2023-04-21T13:06:31;3.80;;;3.47;;
78072;SDS011;67281;48.770;11.440;2023-04-21T13:08:58;4.70;;;3.13;;
78072;SDS011;67281;48.770;11.440;2023-04-21T13:11:26;3.80;;;2.80;;
78072;SDS011;67281;48.770;11.440;2023-04-21T13:13:52;3.10;;;2.80;;
78072;SDS011;67281;48.770;11.440;2023-04-21T13:16:19;4.13;;;3.03;;
78072;SDS011;67281;48.770;11.440;2023-04-21T13:18:46;3.23;;;2.93;;
78072;SDS011;67281;48.770;11.440;2023-04-21T13:21:13;3.63;;;2.93;;
78072;SDS011;67281;48.770;11.440;2023-04-21T13:23:40;2.77;;;2.57;;
78072;SDS011;67281;48.770;11.440;2023-04-21T13:26:07;5.17;;;3.00;;
78072;SDS011;67281;48.770;11.440;2023-04-21T13:28:34;3.70;;;2.87;;
78072;SDS011;67281;48.770;11.440;2023-04-21T13:31:03;4.47;;;2.90;;
78072;SDS011;67281;48.770;11.440;2023-04-21T13:33:31;2.93;;;2.73;;
78072;SDS011;67281;48.770;11.440;2023-04-21T13:36:01;3.57;;;3.20;;
78072;SDS011;67281;48.770;11.440;2023-04-21T13:38:28;3.93;;;2.87;;
78072;SDS011;67281;48.770;11.440;2023-04-21T13:40:56;4.10;;;2.80;;
78072;SDS011;67281;48.770;11.440;2023-04-21T13:43:23;2.83;;;2.63;;
78072;SDS011;67281;48.770;11.440;2023-04-21T13:45:50;3.97;;;2.87;;
78072;SDS011;67281;48.770;11.440;2023-04-21T13:48:18;3.80;;;2.30;;
78072;SDS011;67281;48.770;11.440;2023-04-21T13:50:46;2.60;;;2.40;;
78072;SDS011;67281;48.770;11.440;2023-04-21T13:53:13;2.30;;;2.10;;
78072;SDS011;67281;48.770;11.440;2023-04-21T13:55:43;2.33;;;2.10;;
78072;SDS011;67281;48.770;11.440;2023-04-21T13:58:10;2.37;;;2.07;;
78072;SDS011;67281;48.770;11.440;2023-04-21T14:00:37;2.30;;;1.90;;
78072;SDS011;67281;48.770;11.440;2023-04-21T14:03:04;2.20;;;2.00;;
78072;SDS011;67281;48.770;11.440;2023-04-21T14:05:32;2.23;;;2.03;;
78072;SDS011;67281;48.770;11.440;2023-04-21T14:07:59;2.40;;;2.07;;
78072;SDS011;67281;48.770;11.440;2023-04-21T14:10:30;3.53;;;1.93;;
78072;SDS011;67281;48.770;11.440;2023-04-21T14:12:56;2.70;;;2.10;;
78072;SDS011;67281;48.770;11.440;2023-04-21T14:15:24;1.90;;;1.80;;
78072;SDS011;67281;48.770;11.440;2023-04-21T14:17:51;2.37;;;2.17;;
78072;SDS011;67281;48.770;11.440;2023-04-21T14:20:19;2.00;;;1.80;;
78072;SDS011;67281;48.770;11.440;2023-04-21T14:22:46;2.10;;;1.90;;
78072;SDS011;67281;48.770;11.440;2023-04-21T14:25:13;2.13;;;1.80;;
78072;SDS011;67281;48.770;11.440;2023-04-21T14:27:40;2.10;;;1.90;;
78072;SDS011;67281;48.770;11.440;2023-04-21T14:30:06;2.10;;;1.90;;
78072;SDS011;67281;48.770;11.440;2023-04-21T14:32:34;2.67;;;2.13;;
78072;SDS011;67281;48.770;11.440;2023-04-21T14:35:01;2.07;;;1.83;;
78072;SDS011;67281;48.770;11.440;2023-04-21T14:37:29;3.33;;;1.80;;
78072;SDS011;67281;48.770;11.440;2023-04-21T14:39:56;2.27;;;1.80;;
78072;SDS011;67281;48.770;11.440;2023-04-21T14:42:23;2.43;;;1.93;;
78072;SDS011;67281;48.770;11.440;2023-04-21T14:44:50;6.20;;;2.93;;